createdAt,value
2023-05-10T00:00:44.420Z,14.30
2023-05-10T00:03:11.063Z,11.60
2023-05-10T00:05:37.653Z,9.93
2023-05-10T00:08:04.325Z,10.17
2023-05-10T00:10:30.841Z,8.70
2023-05-10T00:12:57.430Z,11.97
2023-05-10T00:15:23.907Z,7.30
2023-05-10T00:17:50.443Z,6.23
2023-05-10T00:20:17.797Z,6.27
2023-05-10T00:22:44.757Z,5.80
2023-05-10T00:25:11.669Z,5.00
2023-05-10T00:27:38.496Z,4.07
2023-05-10T00:30:05.626Z,4.60
2023-05-10T00:32:32.431Z,3.77
2023-05-10T00:34:59.063Z,4.00
2023-05-10T00:37:25.905Z,3.73
2023-05-10T00:39:52.452Z,3.00
2023-05-10T00:42:19.260Z,2.90
2023-05-10T00:44:45.823Z,3.80
2023-05-10T00:47:12.665Z,3.40
2023-05-10T00:49:39.175Z,4.13
2023-05-10T00:52:05.665Z,2.93
2023-05-10T00:54:35.083Z,3.53
2023-05-10T00:57:02.286Z,5.53
2023-05-10T00:59:29.707Z,4.13
2023-05-10T01:01:56.329Z,5.07
2023-05-10T01:04:26.594Z,4.23
2023-05-10T01:06:54.731Z,5.17
2023-05-10T01:09:22.389Z,5.77
2023-05-10T01:11:49.813Z,5.87
2023-05-10T01:14:19.859Z,6.27
2023-05-10T01:16:48.472Z,6.40
2023-05-10T01:19:24.162Z,7.43
2023-05-10T01:22:26.957Z,6.30
2023-05-10T01:25:11.711Z,8.40
2023-05-10T01:27:56.573Z,7.67
2023-05-10T01:30:35.580Z,8.00
2023-05-10T01:33:12.616Z,7.43
2023-05-10T01:35:46.531Z,7.37
2023-05-10T01:38:19.585Z,8.20
2023-05-10T01:41:08.020Z,8.33
2023-05-10T01:43:44.521Z,8.40
2023-05-10T01:46:17.666Z,8.57
2023-05-10T01:48:53.665Z,10.37
2023-05-10T01:51:26.432Z,10.53
2023-05-10T01:53:55.403Z,10.37
2023-05-10T01:56:25.276Z,11.20
2023-05-10T01:58:53.234Z,12.90
2023-05-10T02:01:21.736Z,11.27
2023-05-10T02:03:50.612Z,11.93
2023-05-10T02:06:17.814Z,13.63
2023-05-10T02:08:45.031Z,12.47
2023-05-10T02:11:12.246Z,14.90
2023-05-10T02:13:40.497Z,13.07
2023-05-10T02:16:07.593Z,14.00
2023-05-10T02:18:36.001Z,13.67
2023-05-10T02:21:03.222Z,14.73
2023-05-10T02:23:30.844Z,14.57
2023-05-10T02:25:58.001Z,19.93
2023-05-10T02:28:25.146Z,22.37
2023-05-10T02:30:52.398Z,17.10
2023-05-10T02:33:20.296Z,19.37
2023-05-10T02:35:47.700Z,18.77
2023-05-10T02:38:15.712Z,14.00
2023-05-10T02:40:43.528Z,14.30
2023-05-10T02:43:14.568Z,13.73
2023-05-10T02:45:42.471Z,12.83
2023-05-10T02:48:09.123Z,15.23
2023-05-10T02:50:36.826Z,12.50
2023-05-10T02:53:09.727Z,9.13
2023-05-10T02:55:39.141Z,9.17
2023-05-10T02:58:05.879Z,10.03
2023-05-10T03:00:32.530Z,6.03
2023-05-10T03:02:59.209Z,5.43
2023-05-10T03:05:26.099Z,6.17
2023-05-10T03:07:53.556Z,5.10
2023-05-10T03:10:20.426Z,5.37
2023-05-10T03:13:14.369Z,4.90
2023-05-10T03:15:46.914Z,4.83
2023-05-10T03:18:37.923Z,4.70
2023-05-10T03:21:07.179Z,5.83
2023-05-10T03:23:33.699Z,6.23
2023-05-10T03:26:00.742Z,5.30
2023-05-10T03:28:28.246Z,6.23
2023-05-10T03:30:55.184Z,4.47
2023-05-10T03:33:21.805Z,5.27
2023-05-10T03:35:48.967Z,5.00
2023-05-10T03:38:15.548Z,4.43
2023-05-10T03:40:42.061Z,7.27
2023-05-10T03:43:08.757Z,4.80
2023-05-10T03:45:35.656Z,4.90
2023-05-10T03:48:02.473Z,4.20
2023-05-10T03:50:29.208Z,4.97
2023-05-10T03:52:56.109Z,5.77
2023-05-10T03:55:23.444Z,5.40
2023-05-10T03:57:50.661Z,4.17
2023-05-10T04:00:17.999Z,4.00
2023-05-10T04:02:46.009Z,3.60
2023-05-10T04:05:13.611Z,3.60
2023-05-10T04:07:40.346Z,4.20
2023-05-10T04:10:08.016Z,3.17
2023-05-10T04:12:34.819Z,2.67
2023-05-10T04:15:01.319Z,2.97
2023-05-10T04:17:28.079Z,3.30
2023-05-10T04:19:55.686Z,4.70
2023-05-10T04:22:22.569Z,4.70
2023-05-10T04:24:49.109Z,4.73
2023-05-10T04:27:15.934Z,4.37
2023-05-10T04:29:42.589Z,4.27
2023-05-10T04:32:09.173Z,4.63
2023-05-10T04:34:35.627Z,5.30
2023-05-10T04:37:02.264Z,6.03
2023-05-10T04:39:28.738Z,4.73
2023-05-10T04:41:55.181Z,5.97
2023-05-10T04:44:21.736Z,7.27
2023-05-10T04:46:48.361Z,6.77
2023-05-10T04:49:15.436Z,6.70
2023-05-10T04:51:41.989Z,6.20
2023-05-10T04:54:09.059Z,6.40
2023-05-10T04:56:35.625Z,6.50
2023-05-10T04:59:02.339Z,6.93
2023-05-10T05:01:28.906Z,7.10
2023-05-10T05:03:55.648Z,7.87
2023-05-10T05:06:22.295Z,10.30
2023-05-10T05:08:50.441Z,8.33
2023-05-10T05:11:17.758Z,8.93
2023-05-10T05:13:44.579Z,10.40
2023-05-10T05:16:12.183Z,14.10
2023-05-10T05:18:39.194Z,10.67
2023-05-10T05:21:18.073Z,11.03
2023-05-10T05:23:44.942Z,15.87
2023-05-10T05:26:11.689Z,15.20
2023-05-10T05:28:38.577Z,15.30
2023-05-10T05:31:06.589Z,19.53
2023-05-10T05:33:33.192Z,23.37
2023-05-10T05:36:02.350Z,19.57
2023-05-10T05:38:29.063Z,22.40
2023-05-10T05:40:56.196Z,19.27
2023-05-10T05:43:22.649Z,25.53
2023-05-10T05:45:49.249Z,24.43
2023-05-10T05:48:15.770Z,28.30
2023-05-10T05:50:42.258Z,23.53
2023-05-10T05:53:09.784Z,26.93
2023-05-10T05:55:36.588Z,26.67
2023-05-10T05:58:04.118Z,26.23
2023-05-10T06:00:30.926Z,23.77
2023-05-10T06:02:58.066Z,28.70
2023-05-10T06:05:24.863Z,26.40
2023-05-10T06:07:51.411Z,28.10
2023-05-10T06:10:18.351Z,32.67
2023-05-10T06:12:45.057Z,30.37
2023-05-10T06:15:12.069Z,29.00
2023-05-10T06:17:39.799Z,31.80
2023-05-10T06:20:07.445Z,30.63
2023-05-10T06:22:33.912Z,31.13
2023-05-10T06:25:00.377Z,32.10
2023-05-10T06:27:26.982Z,36.00
2023-05-10T06:30:02.079Z,30.30
2023-05-10T06:32:32.260Z,35.50
2023-05-10T06:34:58.788Z,37.70
2023-05-10T06:37:25.216Z,42.90
2023-05-10T06:39:51.669Z,36.20
2023-05-10T06:42:18.539Z,38.47
2023-05-10T06:44:45.019Z,35.37
2023-05-10T06:47:11.639Z,37.60
2023-05-10T06:49:38.475Z,41.83
2023-05-10T06:52:05.128Z,42.43
2023-05-10T06:54:31.639Z,38.87
2023-05-10T06:56:58.797Z,41.80
2023-05-10T06:59:25.432Z,38.87
2023-05-10T07:01:52.124Z,39.40
2023-05-10T07:04:18.661Z,44.50
2023-05-10T07:06:47.199Z,40.87
2023-05-10T07:09:14.439Z,42.80
2023-05-10T07:11:40.954Z,50.20
2023-05-10T07:14:07.649Z,45.43
2023-05-10T07:16:34.257Z,48.53
2023-05-10T07:19:01.069Z,48.00
2023-05-10T07:21:29.578Z,55.07
2023-05-10T07:23:56.400Z,50.50
2023-05-10T07:26:22.920Z,54.73
2023-05-10T07:28:50.016Z,52.63
2023-05-10T07:31:16.563Z,54.37
2023-05-10T07:33:42.985Z,51.77
2023-05-10T07:36:09.624Z,51.73
2023-05-10T07:38:38.388Z,52.63
2023-05-10T07:41:06.391Z,55.63
2023-05-10T07:43:33.052Z,56.13
2023-05-10T07:46:00.691Z,51.23
2023-05-10T07:48:27.288Z,57.90
2023-05-10T07:50:53.732Z,56.13
2023-05-10T07:53:20.461Z,59.53
2023-05-10T07:55:51.883Z,52.10
2023-05-10T07:58:18.979Z,51.97
2023-05-10T08:00:45.403Z,45.07
2023-05-10T08:03:12.300Z,51.07
2023-05-10T08:05:38.909Z,51.50
2023-05-10T08:08:12.274Z,47.40
2023-05-10T08:10:38.977Z,42.00
2023-05-10T08:13:05.450Z,44.67
2023-05-10T08:15:31.990Z,42.13
2023-05-10T08:17:58.599Z,40.27
2023-05-10T08:20:25.261Z,43.30
2023-05-10T08:22:52.113Z,41.43
2023-05-10T08:25:18.903Z,35.27
2023-05-10T08:27:45.758Z,36.70
2023-05-10T08:30:13.069Z,36.40
2023-05-10T08:32:39.630Z,34.17
2023-05-10T08:35:06.493Z,33.37
2023-05-10T08:37:33.909Z,31.87
2023-05-10T08:40:00.708Z,31.57
2023-05-10T08:42:29.977Z,30.50
2023-05-10T08:44:57.840Z,35.80
2023-05-10T08:47:26.354Z,41.90
2023-05-10T08:49:53.511Z,35.60
2023-05-10T08:52:20.770Z,37.87
2023-05-10T08:54:47.511Z,32.33
2023-05-10T08:57:14.389Z,36.33
2023-05-10T08:59:41.029Z,29.90
2023-05-10T09:02:09.591Z,25.40
2023-05-10T09:04:36.104Z,28.43
2023-05-10T09:07:02.801Z,25.73
2023-05-10T09:09:29.961Z,22.77
2023-05-10T09:11:56.592Z,24.07
2023-05-10T09:14:24.942Z,19.53
2023-05-10T09:16:52.025Z,20.17
2023-05-10T09:19:18.621Z,21.97
2023-05-10T09:21:45.102Z,20.10
2023-05-10T09:24:11.604Z,20.60
2023-05-10T09:26:47.574Z,20.80
2023-05-10T09:29:16.654Z,23.73
2023-05-10T09:31:47.565Z,28.63
2023-05-10T09:34:22.137Z,23.60
2023-05-10T09:36:53.638Z,28.43
2023-05-10T09:39:20.460Z,32.07
2023-05-10T09:41:47.924Z,27.13
2023-05-10T09:44:18.796Z,28.57
2023-05-10T09:46:50.530Z,21.70
2023-05-10T09:49:17.024Z,18.47
2023-05-10T09:51:43.951Z,20.10
2023-05-10T09:54:15.728Z,19.50
2023-05-10T09:56:42.615Z,23.40
2023-05-10T09:59:11.446Z,23.30
2023-05-10T10:01:38.640Z,22.50
2023-05-10T10:04:07.504Z,19.47
2023-05-10T10:06:43.231Z,19.20
2023-05-10T10:09:10.506Z,18.77
2023-05-10T10:11:38.586Z,20.10
2023-05-10T10:14:06.010Z,19.07
2023-05-10T10:16:33.291Z,15.83
2023-05-10T10:19:00.035Z,16.23
2023-05-10T10:21:26.676Z,16.07
2023-05-10T10:23:54.061Z,17.10
2023-05-10T10:26:22.016Z,17.30
2023-05-10T10:29:14.886Z,17.77
2023-05-10T10:31:53.342Z,18.30
2023-05-10T10:34:30.144Z,21.17
2023-05-10T10:36:57.962Z,17.13
2023-05-10T10:39:26.314Z,16.93
2023-05-10T10:41:55.024Z,13.80
2023-05-10T10:44:26.138Z,14.70
2023-05-10T10:47:09.172Z,11.73
2023-05-10T10:49:43.903Z,13.77
2023-05-10T10:52:33.825Z,12.67
2023-05-10T10:55:04.887Z,12.27
2023-05-10T10:57:44.793Z,12.70
2023-05-10T11:00:25.968Z,11.23
2023-05-10T11:02:58.845Z,13.10
2023-05-10T11:05:26.798Z,13.27
2023-05-10T11:07:57.953Z,11.70
2023-05-10T11:10:25.836Z,12.00
2023-05-10T11:13:09.297Z,10.77
2023-05-10T11:15:39.659Z,10.67
2023-05-10T11:18:18.790Z,9.20
2023-05-10T11:20:47.679Z,9.17
2023-05-10T11:23:16.779Z,9.43
2023-05-10T11:25:45.053Z,9.43
2023-05-10T11:28:15.383Z,10.90
2023-05-10T11:30:44.289Z,10.07
2023-05-10T11:33:12.857Z,9.47
2023-05-10T11:35:43.139Z,10.60
2023-05-10T11:38:11.820Z,10.63
2023-05-10T11:40:39.178Z,10.70
2023-05-10T11:43:06.589Z,12.40
2023-05-10T11:45:33.854Z,15.33
2023-05-10T11:48:00.535Z,15.77
2023-05-10T11:50:27.688Z,17.00
2023-05-10T11:52:55.547Z,17.43
2023-05-10T11:55:22.301Z,17.00
2023-05-10T11:57:52.946Z,16.40
2023-05-10T12:00:19.855Z,19.63
2023-05-10T12:02:46.809Z,20.33
2023-05-10T12:05:13.662Z,17.07
2023-05-10T12:07:40.113Z,12.03
2023-05-10T12:10:10.584Z,13.30
2023-05-10T12:12:38.875Z,12.10
2023-05-10T12:15:07.422Z,12.50
2023-05-10T12:17:33.989Z,12.80
2023-05-10T12:20:15.761Z,12.80
2023-05-10T12:22:45.584Z,15.23
2023-05-10T12:25:12.607Z,17.03
2023-05-10T12:27:39.237Z,17.67
2023-05-10T12:30:06.622Z,19.30
2023-05-10T12:32:40.443Z,19.23
2023-05-10T12:35:07.577Z,18.20
2023-05-10T12:37:36.877Z,17.90
2023-05-10T12:40:05.934Z,17.47
2023-05-10T12:42:33.117Z,16.63
2023-05-10T12:44:59.677Z,18.90
2023-05-10T12:47:26.363Z,16.13
2023-05-10T12:49:52.801Z,18.73
2023-05-10T12:52:19.396Z,16.67
2023-05-10T12:54:45.944Z,18.07
2023-05-10T12:57:12.399Z,15.50
2023-05-10T12:59:38.903Z,14.40
2023-05-10T13:02:05.712Z,14.40
2023-05-10T13:04:32.258Z,16.37
2023-05-10T13:06:59.906Z,15.50
2023-05-10T13:09:28.016Z,14.67
2023-05-10T13:11:55.185Z,14.27
2023-05-10T13:14:21.794Z,14.47
2023-05-10T13:16:48.737Z,14.20
2023-05-10T13:19:17.955Z,12.70
2023-05-10T13:21:47.854Z,11.13
2023-05-10T13:24:14.760Z,11.67
2023-05-10T13:26:41.787Z,9.97
2023-05-10T13:29:08.672Z,10.47
2023-05-10T13:31:36.179Z,11.03
2023-05-10T13:34:03.346Z,12.97
2023-05-10T13:36:29.984Z,14.70
2023-05-10T13:38:56.442Z,15.40
2023-05-10T13:41:22.976Z,14.13
2023-05-10T13:43:50.259Z,12.90
2023-05-10T13:46:17.809Z,14.50
2023-05-10T13:48:44.361Z,12.67
2023-05-10T13:51:10.793Z,14.20
2023-05-10T13:53:37.487Z,15.20
2023-05-10T13:56:04.369Z,12.93
2023-05-10T13:58:31.177Z,12.37
2023-05-10T14:00:58.011Z,11.33
2023-05-10T14:03:24.539Z,12.10
2023-05-10T14:05:51.244Z,13.27
2023-05-10T14:08:18.595Z,11.00
2023-05-10T14:10:45.068Z,13.27
2023-05-10T14:13:11.675Z,10.50
2023-05-10T14:15:38.112Z,12.17
2023-05-10T14:18:04.781Z,13.63
2023-05-10T14:20:33.068Z,13.80
2023-05-10T14:22:59.564Z,12.57
2023-05-10T14:25:26.371Z,15.63
2023-05-10T14:27:55.496Z,14.70
2023-05-10T14:30:21.984Z,14.03
2023-05-10T14:32:48.515Z,13.10
2023-05-10T14:35:16.928Z,13.50
2023-05-10T14:37:45.800Z,13.93
2023-05-10T14:40:13.305Z,12.60
2023-05-10T14:42:39.784Z,14.90
2023-05-10T14:45:06.664Z,14.57
2023-05-10T14:47:33.410Z,15.73
2023-05-10T14:50:00.059Z,15.33
2023-05-10T14:52:26.954Z,16.43
2023-05-10T14:54:53.602Z,13.13
2023-05-10T14:57:20.199Z,14.03
2023-05-10T14:59:46.827Z,11.57
2023-05-10T15:02:14.517Z,13.03
2023-05-10T15:04:41.360Z,14.03
2023-05-10T15:07:08.294Z,13.07
2023-05-10T15:09:34.805Z,11.90
2023-05-10T15:12:01.574Z,11.10
2023-05-10T15:14:28.092Z,11.73
2023-05-10T15:16:54.645Z,10.73
2023-05-10T15:19:21.510Z,11.27
2023-05-10T15:21:48.308Z,10.30
2023-05-10T15:24:15.486Z,9.80
2023-05-10T15:26:42.112Z,9.90
2023-05-10T15:29:08.737Z,9.33
2023-05-10T15:31:37.871Z,7.07
2023-05-10T15:34:04.477Z,8.30
2023-05-10T15:36:32.862Z,9.87
2023-05-10T15:38:59.356Z,8.63
2023-05-10T15:41:26.198Z,7.83
2023-05-10T15:43:52.685Z,8.87
2023-05-10T15:46:19.164Z,8.50
2023-05-10T15:48:45.695Z,7.30
2023-05-10T15:51:12.364Z,8.10
2023-05-10T15:53:41.023Z,7.27
2023-05-10T15:56:13.993Z,6.23
2023-05-10T15:58:40.910Z,5.50
2023-05-10T16:01:07.784Z,5.80
2023-05-10T16:03:37.301Z,9.33
2023-05-10T16:06:04.493Z,5.73
2023-05-10T16:08:33.201Z,5.73
2023-05-10T16:11:00.721Z,5.70
2023-05-10T16:13:27.346Z,9.10
2023-05-10T16:15:54.036Z,7.37
2023-05-10T16:18:20.699Z,5.30
2023-05-10T16:20:47.286Z,5.63
2023-05-10T16:23:15.045Z,6.40
2023-05-10T16:25:41.991Z,5.47
2023-05-10T16:28:08.508Z,7.00
2023-05-10T16:30:35.065Z,5.90
2023-05-10T16:33:02.376Z,5.40
2023-05-10T16:35:29.922Z,5.70
2023-05-10T16:37:57.215Z,5.27
2023-05-10T16:40:24.015Z,7.67
2023-05-10T16:42:50.498Z,6.57
2023-05-10T16:45:17.364Z,6.23
2023-05-10T16:47:44.114Z,6.60
2023-05-10T16:50:14.837Z,6.63
2023-05-10T16:52:41.594Z,6.53
2023-05-10T16:55:08.534Z,5.50
2023-05-10T16:57:35.265Z,6.23
2023-05-10T17:00:01.778Z,5.37
2023-05-10T17:02:28.439Z,6.93
2023-05-10T17:04:56.128Z,7.23
2023-05-10T17:07:25.466Z,7.50
2023-05-10T17:09:52.757Z,7.93
2023-05-10T17:12:19.324Z,9.50
2023-05-10T17:14:45.877Z,8.67
2023-05-10T17:17:12.422Z,10.27
2023-05-10T17:19:38.950Z,11.07
2023-05-10T17:22:05.482Z,10.57
2023-05-10T17:24:32.993Z,13.97
2023-05-10T17:27:00.562Z,12.30
2023-05-10T17:29:28.050Z,13.67
2023-05-10T17:31:54.647Z,12.93
2023-05-10T17:34:21.619Z,14.67
2023-05-10T17:36:48.089Z,14.50
2023-05-10T17:39:14.688Z,14.37
2023-05-10T17:41:41.197Z,16.07
2023-05-10T17:44:07.686Z,14.80
2023-05-10T17:46:34.280Z,15.67
2023-05-10T17:49:01.060Z,15.03
2023-05-10T17:51:28.886Z,16.83
2023-05-10T17:53:55.762Z,15.13
2023-05-10T17:56:22.371Z,17.90
2023-05-10T17:58:50.404Z,17.33
2023-05-10T18:01:16.899Z,17.93
2023-05-10T18:03:43.714Z,18.37
2023-05-10T18:06:10.354Z,18.57
2023-05-10T18:08:37.089Z,18.37
2023-05-10T18:11:03.566Z,17.20
2023-05-10T18:13:30.140Z,18.50
2023-05-10T18:15:56.596Z,18.50
2023-05-10T18:18:23.480Z,17.83
2023-05-10T18:20:56.348Z,26.67
2023-05-10T18:23:24.401Z,21.83
2023-05-10T18:25:51.786Z,21.87
2023-05-10T18:28:18.801Z,25.50
2023-05-10T18:30:45.463Z,24.63
2023-05-10T18:33:12.151Z,18.90
2023-05-10T18:35:40.142Z,35.03
2023-05-10T18:38:09.642Z,20.73
2023-05-10T18:40:36.695Z,19.07
2023-05-10T18:43:03.778Z,18.53
2023-05-10T18:45:30.299Z,19.80
2023-05-10T18:47:57.132Z,22.73
2023-05-10T18:50:23.706Z,19.67
2023-05-10T18:52:50.563Z,21.27
2023-05-10T18:55:17.317Z,22.00
2023-05-10T18:57:45.100Z,27.47
2023-05-10T19:00:13.574Z,26.40
2023-05-10T19:02:40.446Z,27.30
2023-05-10T19:05:07.938Z,26.63
2023-05-10T19:07:34.390Z,25.40
2023-05-10T19:10:00.926Z,29.10
2023-05-10T19:12:27.391Z,24.90
2023-05-10T19:14:54.037Z,25.70
2023-05-10T19:17:20.624Z,26.07
2023-05-10T19:19:48.520Z,24.53
2023-05-10T19:22:15.624Z,24.03
2023-05-10T19:24:42.314Z,22.37
2023-05-10T19:27:09.032Z,25.47
2023-05-10T19:29:35.631Z,23.43
2023-05-10T19:32:02.154Z,25.23
2023-05-10T19:34:29.112Z,27.90
2023-05-10T19:36:56.165Z,24.53
2023-05-10T19:39:22.661Z,25.60
2023-05-10T19:41:49.572Z,23.20
2023-05-10T19:44:16.422Z,23.20
2023-05-10T19:46:43.220Z,22.87
2023-05-10T19:49:09.757Z,25.63
2023-05-10T19:51:36.449Z,23.47
2023-05-10T19:54:02.988Z,26.70
2023-05-10T19:56:29.915Z,24.40
2023-05-10T19:58:56.426Z,28.80
2023-05-10T20:01:23.066Z,27.17
2023-05-10T20:03:49.593Z,29.10
2023-05-10T20:06:16.404Z,27.07
2023-05-10T20:08:43.252Z,29.10
2023-05-10T20:11:09.839Z,32.30
2023-05-10T20:13:36.565Z,25.83
2023-05-10T20:16:05.049Z,25.80
2023-05-10T20:18:31.690Z,27.57
2023-05-10T20:20:59.550Z,27.77
2023-05-10T20:23:26.449Z,24.90
2023-05-10T20:25:54.739Z,25.40
2023-05-10T20:28:23.002Z,26.70
2023-05-10T20:30:53.287Z,27.37
2023-05-10T20:33:20.996Z,25.27
2023-05-10T20:35:48.109Z,27.23
2023-05-10T20:38:14.654Z,26.67
2023-05-10T20:40:41.606Z,21.90
2023-05-10T20:43:08.101Z,22.40
2023-05-10T20:45:37.545Z,26.33
2023-05-10T20:48:04.758Z,24.37
2023-05-10T20:50:31.290Z,25.53
2023-05-10T20:52:57.894Z,29.17
2023-05-10T20:55:24.589Z,27.30
2023-05-10T20:57:51.454Z,25.43
2023-05-10T21:00:18.406Z,29.43
2023-05-10T21:02:45.963Z,27.90
2023-05-10T21:05:12.937Z,25.70
2023-05-10T21:07:40.579Z,25.70
2023-05-10T21:10:08.192Z,27.53
2023-05-10T21:12:34.768Z,25.60
2023-05-10T21:15:01.381Z,28.37
2023-05-10T21:17:27.970Z,24.90
2023-05-10T21:19:54.609Z,34.73
2023-05-10T21:22:21.496Z,28.00
2023-05-10T21:24:48.496Z,29.87
2023-05-10T21:27:14.986Z,30.80
2023-05-10T21:29:41.555Z,28.73
2023-05-10T21:32:08.099Z,30.53
2023-05-10T21:34:35.026Z,31.33
2023-05-10T21:37:01.528Z,31.57
2023-05-10T21:39:27.997Z,33.13
2023-05-10T21:41:54.608Z,29.53
2023-05-10T21:44:21.177Z,33.70
2023-05-10T21:46:47.753Z,34.20
2023-05-10T21:49:14.384Z,32.17
2023-05-10T21:51:41.316Z,30.63
2023-05-10T21:54:07.728Z,29.00
2023-05-10T21:56:34.205Z,33.17
2023-05-10T21:59:00.875Z,31.37
2023-05-10T22:01:27.770Z,31.03
2023-05-10T22:03:54.349Z,33.37
2023-05-10T22:06:20.914Z,31.13
2023-05-10T22:08:47.457Z,34.43
2023-05-10T22:11:15.278Z,44.87
2023-05-10T22:13:41.775Z,36.70
2023-05-10T22:16:08.321Z,32.20
2023-05-10T22:18:35.155Z,35.37
2023-05-10T22:21:01.964Z,36.57
2023-05-10T22:23:28.430Z,34.37
2023-05-10T22:25:59.919Z,39.93
2023-05-10T22:28:26.852Z,40.70
2023-05-10T22:30:53.721Z,42.30
2023-05-10T22:33:20.197Z,36.90
2023-05-10T22:35:46.804Z,38.47
2023-05-10T22:38:13.597Z,40.63
2023-05-10T22:40:40.271Z,44.27
2023-05-10T22:43:06.890Z,37.03
2023-05-10T22:45:33.664Z,36.47
2023-05-10T22:48:00.234Z,40.07
2023-05-10T22:50:26.807Z,37.07
2023-05-10T22:52:53.352Z,38.83
2023-05-10T22:55:20.533Z,42.50
2023-05-10T22:57:47.008Z,41.80
2023-05-10T23:00:14.112Z,37.33
2023-05-10T23:02:40.981Z,39.57
2023-05-10T23:05:08.188Z,36.90
2023-05-10T23:07:34.690Z,39.23
2023-05-10T23:10:01.228Z,37.87
2023-05-10T23:12:28.237Z,38.47
2023-05-10T23:14:54.807Z,39.87
2023-05-10T23:17:21.273Z,40.50
2023-05-10T23:19:47.915Z,39.57
2023-05-10T23:22:14.645Z,36.60
2023-05-10T23:24:41.146Z,38.50
2023-05-10T23:27:07.740Z,35.17
2023-05-10T23:29:34.754Z,34.50
2023-05-10T23:32:01.361Z,40.07
2023-05-10T23:34:27.957Z,39.67
2023-05-10T23:36:54.492Z,41.30
2023-05-10T23:39:22.048Z,41.97
2023-05-10T23:41:48.661Z,37.83
2023-05-10T23:44:15.535Z,42.77
2023-05-10T23:46:42.025Z,41.77
2023-05-10T23:49:08.927Z,35.70
2023-05-10T23:51:35.612Z,39.67
2023-05-10T23:54:02.278Z,37.67
2023-05-10T23:56:28.776Z,40.77
2023-05-10T23:58:55.951Z,38.20
